createdAt,value
2022-08-11T00:00:37.604Z,5.38
2022-08-11T00:02:42.654Z,5.75
2022-08-11T00:04:44.446Z,5.78
2022-08-11T00:06:47.020Z,5.60
2022-08-11T00:08:51.160Z,6.88
2022-08-11T00:11:05.508Z,6.85
2022-08-11T00:13:07.820Z,6.38
2022-08-11T00:15:10.355Z,8.45
2022-08-11T00:17:14.387Z,5.75
2022-08-11T00:20:12.186Z,5.70
2022-08-11T00:22:04.132Z,5.40
2022-08-11T00:24:06.879Z,5.93
2022-08-11T00:26:09.247Z,7.57
2022-08-11T00:28:28.967Z,5.22
2022-08-11T00:30:39.433Z,7.45
2022-08-11T00:32:44.214Z,6.63
2022-08-11T00:34:46.834Z,5.82
2022-08-11T00:37:03.563Z,5.53
2022-08-11T00:39:07.471Z,5.20
2022-08-11T00:41:12.084Z,5.93
2022-08-11T00:43:21.335Z,4.95
2022-08-11T00:45:37.239Z,5.95
2022-08-11T00:48:07.911Z,4.97
2022-08-11T00:50:27.845Z,6.65
2022-08-11T00:52:48.394Z,6.03
2022-08-11T00:55:12.227Z,5.30
2022-08-11T00:57:36.017Z,8.48
2022-08-11T01:02:00.284Z,5.63
2022-08-11T01:04:11.610Z,6.75
2022-08-11T01:06:38.332Z,5.97
2022-08-11T01:09:09.441Z,5.45
2022-08-11T01:11:27.435Z,7.50
2022-08-11T01:14:08.697Z,7.25
2022-08-11T01:16:36.834Z,8.70
2022-08-11T01:18:56.763Z,9.45
2022-08-11T01:20:58.916Z,9.63
2022-08-11T01:23:08.270Z,8.30
2022-08-11T01:25:57.081Z,6.03
2022-08-11T01:28:29.948Z,5.93
2022-08-11T01:30:54.371Z,5.78
2022-08-11T01:33:24.734Z,6.97
2022-08-11T01:35:48.369Z,6.10
2022-08-11T01:37:50.139Z,8.23
2022-08-11T01:40:23.473Z,5.85
2022-08-11T01:43:20.964Z,7.75
2022-08-11T01:45:53.969Z,8.07
2022-08-11T01:48:20.981Z,7.68
2022-08-11T01:50:47.345Z,6.25
2022-08-11T01:53:04.309Z,7.38
2022-08-11T01:55:24.177Z,6.97
2022-08-11T01:57:36.509Z,8.20
2022-08-11T01:59:48.910Z,7.10
2022-08-11T02:02:16.695Z,8.75
2022-08-11T02:04:34.437Z,9.38
2022-08-11T02:06:54.722Z,6.10
2022-08-11T02:09:25.469Z,6.65
2022-08-11T02:11:35.774Z,6.65
2022-08-11T02:14:16.602Z,9.05
2022-08-11T02:16:37.345Z,5.95
2022-08-11T02:18:59.924Z,7.75
2022-08-11T02:21:25.722Z,6.65
2022-08-11T02:24:06.029Z,5.60
2022-08-11T02:26:20.044Z,6.55
2022-08-11T02:28:29.450Z,6.72
2022-08-11T02:30:38.137Z,6.22
2022-08-11T02:33:07.585Z,7.70
2022-08-11T02:35:36.981Z,6.95
2022-08-11T02:38:00.692Z,6.80
2022-08-11T02:40:43.271Z,6.75
2022-08-11T02:42:45.422Z,8.10
2022-08-11T02:45:02.621Z,8.77
2022-08-11T02:47:23.059Z,9.38
2022-08-11T02:50:06.367Z,5.85
2022-08-11T02:52:31.642Z,7.88
2022-08-11T02:54:46.474Z,7.63
2022-08-11T02:56:57.935Z,10.25
2022-08-11T02:59:23.730Z,11.80
2022-08-11T03:01:32.440Z,8.13
2022-08-11T03:04:11.331Z,8.63
2022-08-11T03:06:26.719Z,8.82
2022-08-11T03:08:51.446Z,8.18
2022-08-11T03:11:20.882Z,7.18
2022-08-11T03:13:47.521Z,9.45
2022-08-11T03:16:44.456Z,7.07
2022-08-11T03:19:12.629Z,8.68
2022-08-11T03:22:02.200Z,8.15
2022-08-11T03:24:13.019Z,7.47
2022-08-11T03:26:26.935Z,10.35
2022-08-11T03:28:35.619Z,8.23
2022-08-11T03:30:46.570Z,8.45
2022-08-11T03:33:08.405Z,8.73
2022-08-11T03:35:21.400Z,7.53
2022-08-11T03:37:51.160Z,9.07
2022-08-11T03:40:12.008Z,11.40
2022-08-11T03:42:32.772Z,7.25
2022-08-11T03:44:53.740Z,7.28
2022-08-11T03:47:33.435Z,6.78
2022-08-11T03:49:42.015Z,6.93
2022-08-11T03:52:07.080Z,8.10
2022-08-11T03:54:20.408Z,6.63
2022-08-11T03:56:52.682Z,6.53
2022-08-11T03:59:26.583Z,8.23
2022-08-11T04:02:09.353Z,7.18
2022-08-11T04:04:22.792Z,12.80
2022-08-11T04:06:30.775Z,7.65
2022-08-11T04:08:38.602Z,8.45
2022-08-11T04:11:05.059Z,7.95
2022-08-11T04:13:48.168Z,8.27
2022-08-11T04:16:29.251Z,6.88
2022-08-11T04:19:05.472Z,8.38
2022-08-11T04:21:28.813Z,5.82
2022-08-11T04:24:36.060Z,7.35
2022-08-11T04:26:35.397Z,9.15
2022-08-11T04:29:09.381Z,7.80
2022-08-11T04:31:44.472Z,6.68
2022-08-11T04:34:07.061Z,9.82
2022-08-11T04:36:49.762Z,6.95
2022-08-11T04:38:58.949Z,7.53
2022-08-11T04:41:22.428Z,6.65
2022-08-11T04:44:05.797Z,10.97
2022-08-11T04:46:27.783Z,8.65
2022-08-11T04:49:25.529Z,8.00
2022-08-11T04:52:12.799Z,9.90
2022-08-11T04:54:42.383Z,8.13
2022-08-11T04:57:04.058Z,10.38
2022-08-11T04:59:31.481Z,8.82
2022-08-11T05:01:42.153Z,11.38
2022-08-11T05:04:28.321Z,9.55
2022-08-11T05:07:16.424Z,8.55
2022-08-11T05:10:06.135Z,11.68
2022-08-11T05:12:22.303Z,10.43
2022-08-11T05:14:49.865Z,16.17
2022-08-11T05:17:12.976Z,15.02
2022-08-11T05:19:38.795Z,14.88
2022-08-11T05:22:01.710Z,9.55
2022-08-11T05:24:51.309Z,11.45
2022-08-11T05:27:13.950Z,10.00
2022-08-11T05:30:05.510Z,12.13
2022-08-11T05:32:26.471Z,10.23
2022-08-11T05:34:54.683Z,9.88
2022-08-11T05:37:25.759Z,12.70
2022-08-11T05:39:52.486Z,16.65
2022-08-11T05:42:20.911Z,10.63
2022-08-11T05:44:50.528Z,9.55
2022-08-11T05:47:10.743Z,14.55
2022-08-11T05:49:33.371Z,11.18
2022-08-11T05:51:57.215Z,18.77
2022-08-11T05:54:29.534Z,12.52
2022-08-11T05:56:33.361Z,18.00
2022-08-11T06:00:46.610Z,16.83
2022-08-11T06:02:57.527Z,15.13
2022-08-11T06:05:00.471Z,12.02
2022-08-11T06:07:06.450Z,9.82
2022-08-11T06:09:08.966Z,6.82
2022-08-11T06:11:11.039Z,7.32
2022-08-11T06:13:23.921Z,7.75
2022-08-11T06:15:26.217Z,7.05
2022-08-11T06:17:38.394Z,10.13
2022-08-11T06:19:43.236Z,8.18
2022-08-11T06:21:46.301Z,9.90
2022-08-11T06:23:48.658Z,12.35
2022-08-11T06:25:51.939Z,9.73
2022-08-11T06:27:56.507Z,8.90
2022-08-11T06:29:59.076Z,7.22
2022-08-11T06:32:02.267Z,8.77
2022-08-11T06:34:27.123Z,8.75
2022-08-11T06:36:34.883Z,8.30
2022-08-11T06:38:58.172Z,8.63
2022-08-11T06:41:22.935Z,9.57
2022-08-11T06:43:27.238Z,7.63
2022-08-11T06:45:47.395Z,8.68
2022-08-11T06:47:49.539Z,4.97
2022-08-11T06:50:09.828Z,6.18
2022-08-11T06:52:34.073Z,5.88
2022-08-11T06:54:41.768Z,8.07
2022-08-11T06:59:48.042Z,7.13
2022-08-11T07:02:03.759Z,10.05
2022-08-11T07:04:08.667Z,7.38
2022-08-11T07:06:34.533Z,6.97
2022-08-11T07:09:25.243Z,5.60
2022-08-11T07:12:03.716Z,7.03
2022-08-11T07:14:25.018Z,6.70
2022-08-11T07:16:29.196Z,8.65
2022-08-11T07:18:54.588Z,8.55
2022-08-11T07:22:00.026Z,6.88
2022-08-11T07:24:06.937Z,7.93
2022-08-11T07:26:28.460Z,6.35
2022-08-11T07:28:50.775Z,6.10
2022-08-11T07:30:58.736Z,6.32
2022-08-11T07:33:02.562Z,7.07
2022-08-11T07:35:16.072Z,6.20
2022-08-11T07:37:20.733Z,7.68
2022-08-11T07:39:25.230Z,6.22
2022-08-11T07:41:31.264Z,9.40
2022-08-11T07:43:35.766Z,7.15
2022-08-11T07:46:01.858Z,7.32
2022-08-11T07:48:22.880Z,6.22
2022-08-11T07:50:43.778Z,5.35
2022-08-11T07:52:46.991Z,5.65
2022-08-11T07:54:56.590Z,4.88
2022-08-11T07:57:09.104Z,5.90
2022-08-11T07:59:59.974Z,4.55
2022-08-11T08:02:20.516Z,8.32
2022-08-11T08:04:45.326Z,6.65
2022-08-11T08:07:07.521Z,8.27
2022-08-11T08:09:28.358Z,4.45
2022-08-11T08:11:49.358Z,5.82
2022-08-11T08:14:09.960Z,5.22
2022-08-11T08:16:30.784Z,6.80
2022-08-11T08:18:36.816Z,6.25
2022-08-11T08:20:52.194Z,6.97
2022-08-11T08:22:57.186Z,6.57
2022-08-11T08:25:00.008Z,4.40
2022-08-11T08:27:02.478Z,3.88
2022-08-11T08:29:24.988Z,4.53
2022-08-11T08:31:27.200Z,5.18
2022-08-11T08:33:30.788Z,5.13
2022-08-11T08:35:33.303Z,7.30
2022-08-11T08:37:45.658Z,4.53
2022-08-11T08:39:49.580Z,5.05
2022-08-11T08:41:57.674Z,4.80
2022-08-11T08:44:27.622Z,5.82
2022-08-11T08:46:35.896Z,7.45
2022-08-11T08:48:38.147Z,4.63
2022-08-11T08:51:04.283Z,4.22
2022-08-11T08:53:07.011Z,4.53
2022-08-11T08:55:10.733Z,4.63
2022-08-11T08:57:14.143Z,5.22
2022-08-11T09:01:21.413Z,5.65
2022-08-11T09:03:41.032Z,4.45
2022-08-11T09:05:45.915Z,5.07
2022-08-11T09:07:51.329Z,6.05
2022-08-11T09:09:55.121Z,8.13
2022-08-11T09:11:57.254Z,8.32
2022-08-11T09:14:05.563Z,4.32
2022-08-11T09:16:10.045Z,6.13
2022-08-11T09:18:12.579Z,3.42
2022-08-11T09:20:19.874Z,3.90
2022-08-11T09:22:40.895Z,5.07
2022-08-11T09:25:01.229Z,7.45
2022-08-11T09:27:07.136Z,4.68
2022-08-11T09:29:10.575Z,9.77
2022-08-11T09:33:17.215Z,4.15
2022-08-11T09:35:19.566Z,4.53
2022-08-11T09:37:54.230Z,3.90
2022-08-11T09:40:15.831Z,4.93
2022-08-11T09:42:23.438Z,5.30
2022-08-11T09:44:45.950Z,7.18
2022-08-11T09:46:52.481Z,5.40
2022-08-11T09:48:59.918Z,5.30
2022-08-11T09:51:03.268Z,4.07
2022-08-11T09:55:29.236Z,4.60
2022-08-11T09:57:49.454Z,5.72
2022-08-11T09:59:53.292Z,6.35
2022-08-11T10:02:15.777Z,5.72
2022-08-11T10:04:21.147Z,5.95
2022-08-11T10:06:42.314Z,5.07
2022-08-11T10:08:46.447Z,5.03
2022-08-11T10:12:56.481Z,4.75
2022-08-11T10:15:23.359Z,6.15
2022-08-11T10:17:25.329Z,6.72
2022-08-11T10:19:27.256Z,4.60
2022-08-11T10:21:44.378Z,5.43
2022-08-11T10:24:05.672Z,5.40
2022-08-11T10:26:27.190Z,5.97
2022-08-11T10:28:55.604Z,8.93
2022-08-11T10:31:17.275Z,6.13
2022-08-11T10:33:52.089Z,4.80
2022-08-11T10:36:02.067Z,5.47
2022-08-11T10:38:20.415Z,4.57
2022-08-11T10:40:23.847Z,5.65
2022-08-11T10:45:01.667Z,4.90
2022-08-11T10:47:25.103Z,5.82
2022-08-11T10:49:27.209Z,5.53
2022-08-11T10:51:50.629Z,7.03
2022-08-11T10:54:13.921Z,4.78
2022-08-11T10:56:34.788Z,4.63
2022-08-11T10:58:50.306Z,4.97
2022-08-11T11:00:57.089Z,5.75
2022-08-11T11:03:22.298Z,4.43
2022-08-11T11:05:29.647Z,5.55
2022-08-11T11:07:44.340Z,4.43
2022-08-11T11:09:51.352Z,4.32
2022-08-11T11:12:13.600Z,4.32
2022-08-11T11:14:46.696Z,3.10
2022-08-11T11:17:10.287Z,4.43
2022-08-11T11:19:19.208Z,6.53
2022-08-11T11:21:21.810Z,8.52
2022-08-11T11:23:42.486Z,5.03
2022-08-11T11:25:44.301Z,5.20
2022-08-11T11:27:57.751Z,4.40
2022-08-11T11:30:09.140Z,6.97
2022-08-11T11:32:38.899Z,5.10
2022-08-11T11:35:18.263Z,6.15
2022-08-11T11:37:20.192Z,3.55
2022-08-11T11:39:24.058Z,6.25
2022-08-11T11:41:26.325Z,7.05
2022-08-11T11:43:31.685Z,5.32
2022-08-11T11:45:33.678Z,4.97
2022-08-11T11:47:36.903Z,6.72
2022-08-11T11:49:44.298Z,5.57
2022-08-11T11:51:52.692Z,4.22
2022-08-11T11:53:55.250Z,6.63
2022-08-11T11:55:59.162Z,9.95
2022-08-11T11:58:22.146Z,12.75
2022-08-11T12:00:43.589Z,4.30
2022-08-11T12:02:45.679Z,4.43
2022-08-11T12:04:48.983Z,8.23
2022-08-11T12:08:56.386Z,6.75
2022-08-11T12:11:22.427Z,8.43
2022-08-11T12:13:42.420Z,5.18
2022-08-11T12:16:34.190Z,8.65
2022-08-11T12:18:06.709Z,7.38
2022-08-11T12:20:33.141Z,14.40
2022-08-11T12:23:03.736Z,11.15
2022-08-11T12:27:43.757Z,5.38
2022-08-11T12:29:55.938Z,4.80
2022-08-11T12:32:00.515Z,7.13
2022-08-11T12:34:06.251Z,5.25
2022-08-11T12:36:10.055Z,5.25
2022-08-11T12:38:12.561Z,5.55
2022-08-11T12:40:42.600Z,4.68
2022-08-11T12:43:24.307Z,4.63
2022-08-11T12:45:41.788Z,4.15
2022-08-11T12:48:57.512Z,5.30
2022-08-11T12:50:52.936Z,4.60
2022-08-11T12:52:57.174Z,3.65
2022-08-11T12:55:13.636Z,6.32
2022-08-11T12:57:55.284Z,4.15
2022-08-11T13:00:16.360Z,3.97
2022-08-11T13:02:44.345Z,7.80
2022-08-11T13:04:59.268Z,4.03
2022-08-11T13:07:03.333Z,6.10
2022-08-11T13:09:06.724Z,4.53
2022-08-11T13:13:55.127Z,5.90
2022-08-11T13:15:58.855Z,4.03
2022-08-11T13:18:01.331Z,3.38
2022-08-11T13:20:03.519Z,5.88
2022-08-11T13:22:07.627Z,7.75
2022-08-11T13:26:11.412Z,4.00
2022-08-11T13:28:14.258Z,3.50
2022-08-11T13:30:40.367Z,4.05
2022-08-11T13:32:45.395Z,5.60
2022-08-11T13:34:47.569Z,3.28
2022-08-11T13:36:53.901Z,4.90
2022-08-11T13:38:58.464Z,3.42
2022-08-11T13:41:00.500Z,6.55
2022-08-11T13:43:02.937Z,3.92
2022-08-11T13:45:07.498Z,7.00
2022-08-11T13:47:13.005Z,4.28
2022-08-11T13:49:18.414Z,4.15
2022-08-11T13:51:35.980Z,4.30
2022-08-11T13:53:37.836Z,4.28
2022-08-11T13:55:51.279Z,3.88
2022-08-11T13:58:07.305Z,4.47
2022-08-11T14:00:27.601Z,5.70
2022-08-11T14:02:31.755Z,4.80
2022-08-11T14:04:50.301Z,3.47
2022-08-11T14:06:53.946Z,3.05
2022-08-11T14:08:56.007Z,3.47
2022-08-11T14:12:20.554Z,4.43
2022-08-11T14:13:48.005Z,3.40
2022-08-11T14:15:50.911Z,3.88
2022-08-11T14:17:56.787Z,6.93
2022-08-11T14:20:02.130Z,3.95
2022-08-11T14:22:23.950Z,4.47
2022-08-11T14:24:27.241Z,6.25
2022-08-11T14:28:40.053Z,5.57
2022-08-11T14:31:01.453Z,5.40
2022-08-11T14:33:16.799Z,3.03
2022-08-11T14:35:19.631Z,3.45
2022-08-11T14:37:23.320Z,4.75
2022-08-11T14:39:31.214Z,3.30
2022-08-11T14:42:10.009Z,5.93
2022-08-11T14:44:32.277Z,4.18
2022-08-11T14:46:53.228Z,5.18
2022-08-11T14:48:55.430Z,4.25
2022-08-11T14:50:57.608Z,4.55
2022-08-11T14:53:10.028Z,4.80
2022-08-11T14:55:32.289Z,4.50
2022-08-11T14:57:55.393Z,5.40
2022-08-11T15:00:00.656Z,5.05
2022-08-11T15:02:22.971Z,6.05
2022-08-11T15:04:35.949Z,4.80
2022-08-11T15:06:38.621Z,4.20
2022-08-11T15:08:56.608Z,4.60
2022-08-11T15:10:58.609Z,3.80
2022-08-11T15:13:01.349Z,3.47
2022-08-11T15:15:24.546Z,3.75
2022-08-11T15:17:29.448Z,4.82
2022-08-11T15:20:06.070Z,4.60
2022-08-11T15:22:28.153Z,3.75
2022-08-11T15:24:31.297Z,4.65
2022-08-11T15:27:00.947Z,5.72
2022-08-11T15:29:23.534Z,5.65
2022-08-11T15:31:42.460Z,7.10
2022-08-11T15:34:18.056Z,5.03
2022-08-11T15:36:38.966Z,4.03
2022-08-11T15:38:45.149Z,4.85
2022-08-11T15:41:05.463Z,5.03
2022-08-11T15:43:33.762Z,10.13
2022-08-11T15:45:50.803Z,5.57
2022-08-11T15:48:05.743Z,4.53
2022-08-11T15:50:13.681Z,6.63
2022-08-11T15:52:19.167Z,3.50
2022-08-11T15:54:25.737Z,4.78
2022-08-11T15:56:29.791Z,6.20
2022-08-11T15:59:10.568Z,5.63
2022-08-11T16:01:34.739Z,4.30
2022-08-11T16:04:12.810Z,4.00
2022-08-11T16:06:15.483Z,3.35
2022-08-11T16:08:32.571Z,5.03
2022-08-11T16:10:35.779Z,3.70
2022-08-11T16:12:39.884Z,4.00
2022-08-11T16:15:04.238Z,4.53
2022-08-11T16:17:07.767Z,6.10
2022-08-11T16:19:10.962Z,4.15
2022-08-11T16:21:33.901Z,3.97
2022-08-11T16:23:37.720Z,7.22
2022-08-11T16:27:05.718Z,4.35
2022-08-11T16:28:06.947Z,4.43
2022-08-11T16:30:10.887Z,6.38
2022-08-11T16:32:19.100Z,4.45
2022-08-11T16:34:39.955Z,4.57
2022-08-11T16:37:00.772Z,8.20
2022-08-11T16:39:03.822Z,4.93
2022-08-11T16:41:11.505Z,7.82
2022-08-11T16:43:38.050Z,6.10
2022-08-11T16:45:59.910Z,4.80
2022-08-11T16:48:36.175Z,5.65
2022-08-11T16:50:24.307Z,5.07
2022-08-11T16:52:26.536Z,5.30
2022-08-11T16:54:29.485Z,4.88
2022-08-11T16:56:35.408Z,3.60
2022-08-11T16:58:56.887Z,5.20
2022-08-11T17:00:59.893Z,5.47
2022-08-11T17:03:20.642Z,4.35
2022-08-11T17:05:53.896Z,7.30
2022-08-11T17:08:17.895Z,4.05
2022-08-11T17:10:52.770Z,6.85
2022-08-11T17:13:09.362Z,5.32
2022-08-11T17:15:35.988Z,4.38
2022-08-11T17:17:38.890Z,8.18
2022-08-11T17:20:39.581Z,4.80
2022-08-11T17:22:28.607Z,5.03
2022-08-11T17:24:31.771Z,5.15
2022-08-11T17:26:58.413Z,7.47
2022-08-11T17:29:02.418Z,3.85
2022-08-11T17:31:23.887Z,4.07
2022-08-11T17:33:44.157Z,3.97
2022-08-11T17:35:45.991Z,4.35
2022-08-11T17:37:48.544Z,4.28
2022-08-11T17:39:50.976Z,4.80
2022-08-11T17:42:12.106Z,5.50
2022-08-11T17:44:32.838Z,3.50
2022-08-11T17:46:54.630Z,6.72
2022-08-11T17:48:56.917Z,4.43
2022-08-11T17:51:11.072Z,5.40
2022-08-11T17:53:32.121Z,4.00
2022-08-11T17:55:54.120Z,5.93
2022-08-11T17:58:14.851Z,4.78
2022-08-11T18:00:17.519Z,4.95
2022-08-11T18:02:44.164Z,6.22
2022-08-11T18:04:48.137Z,5.13
2022-08-11T18:06:50.764Z,4.80
2022-08-11T18:09:12.665Z,5.20
2022-08-11T18:12:06.454Z,4.35
2022-08-11T18:14:15.663Z,5.38
2022-08-11T18:16:37.513Z,4.00
2022-08-11T18:18:58.212Z,4.53
2022-08-11T18:21:18.680Z,5.05
2022-08-11T18:23:46.700Z,4.03
2022-08-11T18:26:09.062Z,7.28
2022-08-11T18:28:31.336Z,4.10
2022-08-11T18:31:03.171Z,4.72
2022-08-11T18:33:50.592Z,3.85
2022-08-11T18:36:12.453Z,5.65
2022-08-11T18:38:35.509Z,4.72
2022-08-11T18:40:56.589Z,8.47
2022-08-11T18:43:25.120Z,5.15
2022-08-11T18:45:47.166Z,6.60
2022-08-11T18:48:18.013Z,4.35
2022-08-11T18:50:40.612Z,4.50
2022-08-11T18:53:09.001Z,4.25
2022-08-11T18:55:35.409Z,4.65
2022-08-11T18:57:58.157Z,6.00
2022-08-11T19:00:20.542Z,5.63
2022-08-11T19:02:48.628Z,4.57
2022-08-11T19:05:15.195Z,3.95
2022-08-11T19:07:35.995Z,4.60
2022-08-11T19:09:58.550Z,5.13
2022-08-11T19:12:20.133Z,5.40
2022-08-11T19:14:41.542Z,6.25
2022-08-11T19:17:02.979Z,7.25
2022-08-11T19:19:23.732Z,5.78
2022-08-11T19:21:45.676Z,6.03
2022-08-11T19:24:10.434Z,8.10
2022-08-11T19:26:31.597Z,4.88
2022-08-11T19:28:54.122Z,6.65
2022-08-11T19:31:14.936Z,6.88
2022-08-11T19:34:00.447Z,8.50
2022-08-11T19:36:17.100Z,5.47
2022-08-11T19:38:37.561Z,6.15
2022-08-11T19:40:59.091Z,5.90
2022-08-11T19:43:26.179Z,4.80
2022-08-11T19:45:52.504Z,5.50
2022-08-11T19:48:31.243Z,5.15
2022-08-11T19:50:53.401Z,5.20
2022-08-11T19:53:17.357Z,9.52
2022-08-11T19:55:38.060Z,4.82
2022-08-11T19:58:01.200Z,5.20
2022-08-11T20:00:25.009Z,4.40
2022-08-11T20:02:50.487Z,6.85
2022-08-11T20:05:11.095Z,4.80
2022-08-11T20:07:32.016Z,6.53
2022-08-11T20:10:04.740Z,4.82
2022-08-11T20:14:50.061Z,4.80
2022-08-11T20:17:11.926Z,8.77
2022-08-11T20:19:56.100Z,5.30
2022-08-11T20:22:17.803Z,5.28
2022-08-11T20:24:39.392Z,6.32
2022-08-11T20:26:59.686Z,7.10
2022-08-11T20:29:20.705Z,5.63
2022-08-11T20:31:42.061Z,9.40
2022-08-11T20:34:03.726Z,9.20
2022-08-11T20:36:26.796Z,5.00
2022-08-11T20:38:49.629Z,5.72
2022-08-11T20:41:11.454Z,4.05
2022-08-11T20:44:08.245Z,5.50
2022-08-11T20:46:15.479Z,5.93
2022-08-11T20:48:36.943Z,6.47
2022-08-11T20:50:57.183Z,7.32
2022-08-11T20:53:18.146Z,6.43
2022-08-11T20:55:52.039Z,7.32
2022-08-11T20:58:18.280Z,4.68
2022-08-11T21:00:40.123Z,6.47
2022-08-11T21:03:01.315Z,5.53
2022-08-11T21:06:08.980Z,6.25
2022-08-11T21:08:06.739Z,4.78
2022-08-11T21:10:28.031Z,6.43
2022-08-11T21:12:50.691Z,5.32
2022-08-11T21:15:39.183Z,8.15
2022-08-11T21:18:06.084Z,6.32
2022-08-11T21:20:29.248Z,7.57
2022-08-11T21:22:59.497Z,8.23
2022-08-11T21:25:27.530Z,6.32
2022-08-11T21:27:48.264Z,5.13
2022-08-11T21:30:08.941Z,4.07
2022-08-11T21:32:29.264Z,4.97
2022-08-11T21:34:50.070Z,6.38
2022-08-11T21:37:11.331Z,4.93
2022-08-11T21:39:35.576Z,6.18
2022-08-11T21:44:17.408Z,6.38
2022-08-11T21:46:39.661Z,5.80
2022-08-11T21:49:00.941Z,9.20
2022-08-11T21:51:21.393Z,3.75
2022-08-11T21:53:41.807Z,7.15
2022-08-11T21:56:03.934Z,4.15
2022-08-11T21:58:25.179Z,6.13
2022-08-11T22:00:45.650Z,5.35
2022-08-11T22:03:06.100Z,5.68
2022-08-11T22:05:26.815Z,5.18
2022-08-11T22:07:47.208Z,4.78
2022-08-11T22:10:31.998Z,5.32
2022-08-11T22:12:48.799Z,8.60
2022-08-11T22:15:09.497Z,7.88
2022-08-11T22:17:29.768Z,7.10
2022-08-11T22:19:50.164Z,4.97
2022-08-11T22:22:11.512Z,7.47
2022-08-11T22:24:32.444Z,7.22
2022-08-11T22:26:54.387Z,5.43
2022-08-11T22:29:14.744Z,4.65
2022-08-11T22:31:35.639Z,3.90
2022-08-11T22:34:02.698Z,5.60
2022-08-11T22:36:23.756Z,4.07
2022-08-11T22:38:44.635Z,4.97
2022-08-11T22:41:05.079Z,11.77
2022-08-11T22:43:26.076Z,5.15
2022-08-11T22:45:46.462Z,5.10
2022-08-11T22:48:07.877Z,4.22
2022-08-11T23:20:54.875Z,5.43
2022-08-11T23:23:16.187Z,4.03
2022-08-11T23:25:36.826Z,5.13
2022-08-11T23:27:57.743Z,5.80
2022-08-11T23:30:19.468Z,3.85
2022-08-11T23:32:40.616Z,7.10
2022-08-11T23:35:40.062Z,4.43
2022-08-11T23:37:44.698Z,6.93
2022-08-11T23:40:04.936Z,3.88
2022-08-11T23:42:25.792Z,5.72
2022-08-11T23:44:46.574Z,5.13
2022-08-11T23:47:08.997Z,5.25
2022-08-11T23:49:29.615Z,4.72
2022-08-11T23:51:50.341Z,4.10
2022-08-11T23:54:11.203Z,5.20
2022-08-11T23:56:32.255Z,5.57
2022-08-11T23:58:53.687Z,7.28
